Aviation Digital Data Service (ADDS)

Output produced by METARs form (0937 UTC 23 November 2014)
found at http://aviationweather.gov/adds/metars/
 
KDAG 230850Z AUTO 26014G21KT 10SM CLR 14/07 A3005 RMK AO2 SLP158 T01440067 53026
KDAG 230843Z 2309/2406 27011KT P6SM SCT250 
     FM231500 31008KT P6SM SCT250 
     FM231800 04008KT P6SM SCT250 
     FM240100 VRB06KT P6SM SCT250
       
KEDW 230907Z AUTO 22012G22KT 10SM CLR 13/06 A3007 RMK AO2 WSHFT 0857
KVCV 230915Z AUTO 28013G20KT 10SM CLR 11/06 A3008 RMK AO2
KONT 230853Z 07003KT 8SM FEW017 13/11 A3004 RMK AO2 SLP167 T01330111 51001
KONT 230640Z 2307/2412 VRB03KT P6SM FEW030 BKN150 
     TEMPO 2309/2312 BKN012 
     FM231300 03005KT P6SM SCT200 WS015/03030KT 
     FM231600 04020G30KT P6SM SCT200 
     FM232100 04010G20KT P6SM SCT200 
     FM240300 05005KT P6SM SCT200
       
KNID 230856Z AUTO 23007KT 10SM CLR 07/M01 A3003 RMK AO2 SLP170 T00671011 53030 $
KSNA 230853Z AUTO 10005KT 10SM CLR 17/12 A3003 RMK AO2 SLP168 T01670122 57004 TSNO
KSNA 230709Z 2307/2406 VRB03KT P6SM FEW015 BKN250 
     TEMPO 2309/2312 BKN015 
     FM231300 VRB04KT P6SM SCT250 WS015/03030KT 
     FM231600 05015G25KT P6SM SCT250 
     FM231900 05010G20KT P6SM SCT250 
     FM232300 05007KT P6SM SCT250
       
KSAN 230851Z 11004KT 10SM FEW016 SCT250 16/12 A3005 RMK AO2 SLP174 T01610122 58009
KSAN 230701Z 2307/2412 VRB03KT P6SM SCT017 SCT250 
     TEMPO 2308/2312 BKN015 
     FM231900 30010G17KT P6SM SCT250 
     FM240200 VRB03KT P6SM SCT250
       
KNXP 230856Z AUTO 32019G22KT 10SM CLR 16/06 A3004 RMK AO2 SLP147 T01560061 53015 $
TAF KNXP 2309/2409 36013KT 9999 FEW150 QNH3001INS 
     TEMPO 2309/2315 34017G25KT 
     FM231600 36015KT 9999 FEW200 QNH3008INS 
     TEMPO 2318/2322 01018G25KT 
     BECMG 2323/2401 35010KT QNH3015INS AUTOMATED SENSOR METWATCH 2309 TIL 2416 T10/2314Z T20/2322Z
       
KPSP 230853Z AUTO 25003KT 10SM CLR 13/04 A2994 RMK AO2 SLP138 T01330044 53010 TSNO
KPSP 230520Z 2306/2406 11008KT P6SM SKC 
     FM231700 36015G22KT P6SM SCT200 
     FM232200 01007KT P6SM SCT200
       
KLAX 230853Z VRB04KT 10SM FEW015 SCT200 16/13 A3004 RMK AO2 SLP169 T01560133 58002
KLAX 230530Z 2306/2412 16005KT P6SM FEW015 SCT250 
     FM230800 VRB05KT P6SM SCT250 
     FM232000 25007KT P6SM SKC 
     FM232300 30008KT P6SM SKC 
     FM240500 VRB05KT P6SM SKC
       
KCNO 230853Z 00000KT 5SM BR CLR 11/09 A3006 RMK AO2 SLP175 T01060094 51001
KSMO 230851Z AUTO 00000KT 10SM CLR 14/11 A3003 RMK AO2 SLP169 T01440111 58003 $
KLGB 230853Z AUTO 09003KT 9SM CLR 14/13 A3003 RMK AO2 SLP168 T01440133 58003 TSNO
KLGB 230824Z 2308/2406 VRB03KT 6SM BR SCT010 BKN022 
     FM231700 03008KT P6SM SCT025 
     FM232300 34007KT P6SM SKC 
     FM240400 VRB05KT P6SM SKC
       
KVNY 230851Z 35021G29KT 10SM CLR 18/06 A3003 RMK AO2 PK WND 01031/0828 SLP163 T01780061 58003
KVNY 230935Z 2310/2406 35020G30KT P6SM SKC 
     FM231700 36016G26KT P6SM SKC 
     FM232000 36020G30KT P6SM SKC 
     FM240100 36015KT P6SM SKC 
     FM240500 VRB05KT 6SM BR SKC
       
KBUR 230853Z 13003KT 10SM CLR 14/08 A3003 RMK AO2 SLP159 T01390083 58003
KBUR 230530Z 2306/2406 VRB05KT P6SM SCT250 
     FM231400 34010G20KT P6SM SKC 
     FM232100 03008KT P6SM SKC 
     FM240200 VRB05KT P6SM SKC
       
KBFL 230931Z AUTO 30005KT 7SM FEW027 SCT033 OVC050 13/09 A3019 RMK AO2 T01330089
KBFL 230737Z 2308/2406 29004KT P6SM OVC030 
     FM232000 VRB04KT P6SM SCT030 SCT150
       
KPMD 230853Z AUTO 29020KT 10SM CLR 12/06 A3010 RMK AO2 PK WND 29028/0810 SLP176 T01220061 52009
KPMD 230936Z 2310/2406 28015G25KT P6SM SCT250 
     FM231500 24006KT P6SM SKC 
     FM231800 04009KT P6SM SKC 
     FM232100 06014G24KT P6SM SKC 
     FM240500 07008KT P6SM SKC
       
KOXR 230851Z AUTO 00000KT 10SM CLR 13/08 A3004 RMK AO2 SLP172 T01280078 53005
KOXR 230538Z 2306/2406 VRB05KT P6SM SKC 
     FM231300 06012KT P6SM SKC 
     FM231600 06015G25KT P6SM SKC 
     FM232100 04014KT P6SM SKC 
     FM240400 04007KT P6SM SKC
       
KWJF 230856Z AUTO 28028G35KT 10SM CLR 12/06 A3007 RMK AO2 PK WND 25035/0851 SLP179 T01170061 58003
KWJF 230936Z 2310/2406 25020G35KT P6SM SCT250 
     FM231100 29007KT P6SM SKC 
     FM231800 03008KT P6SM SKC 
     FM232100 04012G22KT P6SM SKC 
     FM240300 04007KT P6SM SKC
       
KCMA 230855Z AUTO 07003KT 10SM CLR 12/07 A3004 RMK AO2 SLP181 T01170072 52006
KFAT 230853Z 31014KT 6SM BR SCT016 BKN018 12/11 A3017 RMK AO2 SLP216 T01170106 50006
KFAT 230725Z 2307/2406 32008KT 6SM HZ BKN020 
     FM231200 VRB03KT 3SM BR BKN015 
     FM231900 VRB03KT 6SM HZ FEW150
       
KEED 230856Z AUTO 33005KT 10SM CLR 14/M02 A2993 RMK AO2 SLP117 T01391017 51010
KEED 230522Z 2306/2406 VRB06KT P6SM FEW250 
     FM230900 30010KT P6SM FEW250 
     FM231300 35012G20KT P6SM FEW250 
     FM231600 01018G26KT P6SM FEW250 
     FM231800 01024G32KT P6SM FEW250 
     FM240100 33009KT P6SM FEW250
       
KLSV 230858Z AUTO 01008KT 10SM CLR 16/M02 A3001 RMK AO2 PK WND 30029/02 SLP152 T01561019 52028
TAF KLSV 2309/2415 02009KT 9999 SKC 520009 QNH2990INS 
     TEMPO 2309/2312 29015G25KT 
     BECMG 2312/2313 03012G18KT 9999 FEW250 520009 520906 QNH3011INS 
     TEMPO 2317/2321 02015G25KT 
     BECMG 2402/2403 04009KT 9999 SKC QNH3027INS TX17/2321Z TN03/2315Z
       
KLAS 230856Z 32014G27KT 10SM FEW150 17/M05 A2995 RMK AO2 PK WND 33032/0832 SLP130 T01671050 51019 $
KLAS 230842Z 2309/2406 34013G23KT P6SM FEW150 SCT250 
     TEMPO 2309/2311 32020G30KT 
     FM231900 02010G16KT P6SM FEW250 
     FM240000 VRB06KT P6SM FEW250
       
KHII 230915Z AUTO 00000KT 10SM SCT050 15/00 A2993 RMK AO2
KIFP 230915Z AUTO 00000KT 10SM CLR 14/M02 A2995 RMK AO2 PWINO